Terminal Aerodrome Forecast
Issued by NWS Columbia, SC

Home | Current Version | Previous Version | Text Only | Print | Product List | Glossary On
Versions: 1 2 3 4 5 6 7 8 9 10 11 12 13 14 15 16 17 18 19 20 21 22 23 24 25 26 27 28 29 30 31 32
000
FTUS42 KCAE 051900 AAA
TAFCAE
TAF AMD
KCAE 051920Z 0519/0618 29016G30KT 4SM -SHRA SCT020 OVC045
     FM052300 35014G24KT P6SM -RA OVC015
     FM060400 04012G20KT P6SM OVC035
     FM061400 05012G18KT P6SM BKN050=

USA.gov is the U.S. government's official web portal to all federal, state and local government web resources and services.